createdAt,value
2023-04-18T00:00:53.713Z,27.33
2023-04-18T00:03:22.232Z,24.70
2023-04-18T00:05:51.835Z,26.20
2023-04-18T00:08:18.957Z,29.00
2023-04-18T00:10:45.659Z,26.98
2023-04-18T00:13:12.867Z,24.33
2023-04-18T00:15:41.736Z,26.02
2023-04-18T00:18:08.453Z,28.40
2023-04-18T00:20:39.299Z,27.48
2023-04-18T00:23:06.319Z,30.38
2023-04-18T00:25:35.450Z,28.35
2023-04-18T00:28:02.195Z,29.40
2023-04-18T00:30:28.897Z,26.05
2023-04-18T00:32:55.634Z,27.85
2023-04-18T00:35:22.788Z,31.80
2023-04-18T00:37:49.530Z,32.40
2023-04-18T00:40:16.765Z,27.50
2023-04-18T00:42:43.450Z,29.27
2023-04-18T00:45:11.030Z,27.98
2023-04-18T00:47:37.749Z,29.63
2023-04-18T00:50:05.744Z,28.83
2023-04-18T00:52:34.826Z,32.65
2023-04-18T00:55:03.780Z,28.45
2023-04-18T00:57:31.682Z,28.88
2023-04-18T01:00:09.760Z,27.23
2023-04-18T01:02:37.558Z,31.15
2023-04-18T01:05:04.813Z,27.40
2023-04-18T01:07:36.663Z,28.90
2023-04-18T01:10:05.362Z,29.10
2023-04-18T01:12:33.055Z,28.67
2023-04-18T01:15:01.170Z,30.90
2023-04-18T01:17:28.492Z,27.92
2023-04-18T01:19:57.040Z,31.85
2023-04-18T01:22:24.550Z,30.08
2023-04-18T01:24:51.243Z,28.60
2023-04-18T01:27:18.105Z,28.77
2023-04-18T01:29:45.213Z,29.58
2023-04-18T01:32:12.494Z,29.60
2023-04-18T01:34:39.582Z,29.38
2023-04-18T01:37:06.401Z,32.35
2023-04-18T01:39:33.118Z,30.83
2023-04-18T01:42:01.768Z,32.55
2023-04-18T01:44:28.446Z,28.67
2023-04-18T01:46:55.263Z,27.73
2023-04-18T01:49:22.002Z,28.45
2023-04-18T01:51:48.968Z,30.10
2023-04-18T01:54:16.478Z,30.48
2023-04-18T01:56:43.605Z,28.40
2023-04-18T01:59:11.831Z,30.17
2023-04-18T02:01:38.582Z,28.77
2023-04-18T02:04:06.757Z,28.30
2023-04-18T02:06:33.482Z,29.95
2023-04-18T02:09:00.667Z,28.20
2023-04-18T02:11:27.766Z,29.58
2023-04-18T02:13:55.642Z,28.70
2023-04-18T02:16:22.406Z,28.48
2023-04-18T02:18:52.406Z,27.88
2023-04-18T02:21:19.144Z,27.30
2023-04-18T02:23:45.947Z,28.73
2023-04-18T02:26:13.047Z,26.30
2023-04-18T02:28:39.860Z,27.27
2023-04-18T02:31:14.850Z,25.02
2023-04-18T02:33:43.231Z,27.70
2023-04-18T02:36:14.796Z,28.02
2023-04-18T02:38:41.522Z,28.05
2023-04-18T02:41:09.875Z,26.30
2023-04-18T02:43:36.529Z,26.90
2023-04-18T02:46:03.263Z,28.25
2023-04-18T02:48:30.954Z,24.98
2023-04-18T02:51:08.740Z,30.25
2023-04-18T02:53:35.667Z,27.88
2023-04-18T02:56:02.974Z,26.75
2023-04-18T02:58:29.768Z,29.25
2023-04-18T03:00:58.259Z,25.33
2023-04-18T03:03:25.159Z,27.15
2023-04-18T03:05:51.910Z,27.52
2023-04-18T03:08:20.685Z,26.17
2023-04-18T03:10:47.748Z,27.23
2023-04-18T03:13:16.141Z,26.85
2023-04-18T03:15:43.560Z,25.70
2023-04-18T03:18:12.380Z,27.15
2023-04-18T03:20:41.750Z,25.25
2023-04-18T03:23:08.572Z,28.42
2023-04-18T03:25:35.570Z,27.73
2023-04-18T03:28:02.964Z,27.35
2023-04-18T03:30:29.904Z,29.42
2023-04-18T03:32:59.023Z,23.55
2023-04-18T03:35:26.433Z,27.25
2023-04-18T03:37:53.108Z,26.85
2023-04-18T03:40:20.346Z,25.45
2023-04-18T03:42:49.940Z,23.00
2023-04-18T03:45:17.058Z,26.38
2023-04-18T03:47:43.790Z,25.60
2023-04-18T03:50:10.682Z,25.98
2023-04-18T03:52:37.742Z,26.00
2023-04-18T03:55:06.201Z,25.33
2023-04-18T03:57:33.288Z,27.98
2023-04-18T04:00:00.006Z,28.40
2023-04-18T04:02:26.812Z,28.25
2023-04-18T04:04:54.308Z,24.98
2023-04-18T04:07:21.048Z,27.10
2023-04-18T04:09:48.204Z,27.15
2023-04-18T04:12:14.983Z,28.45
2023-04-18T04:14:41.986Z,30.80
2023-04-18T04:17:11.777Z,25.92
2023-04-18T04:19:38.441Z,29.42
2023-04-18T04:22:05.361Z,31.30
2023-04-18T04:24:33.670Z,33.83
2023-04-18T04:27:01.180Z,30.73
2023-04-18T04:29:29.179Z,30.13
2023-04-18T04:31:55.923Z,30.63
2023-04-18T04:34:23.142Z,30.90
2023-04-18T04:36:51.524Z,31.02
2023-04-18T04:39:18.653Z,30.15
2023-04-18T04:41:47.625Z,32.75
2023-04-18T04:44:17.659Z,29.95
2023-04-18T04:46:45.993Z,30.50
2023-04-18T04:49:13.126Z,30.90
2023-04-18T04:51:40.280Z,33.28
2023-04-18T04:54:07.500Z,29.75
2023-04-18T04:56:34.651Z,34.08
2023-04-18T04:59:02.307Z,29.00
2023-04-18T05:01:29.091Z,31.83
2023-04-18T05:03:56.304Z,28.02
2023-04-18T05:06:23.936Z,30.30
2023-04-18T05:08:51.569Z,28.30
2023-04-18T05:11:20.454Z,29.38
2023-04-18T05:13:47.892Z,27.80
2023-04-18T05:16:14.679Z,26.45
2023-04-18T05:18:42.861Z,29.75
2023-04-18T05:21:11.162Z,29.45
2023-04-18T05:23:38.737Z,26.50
2023-04-18T05:26:06.442Z,28.30
2023-04-18T05:28:35.561Z,25.70
2023-04-18T05:31:04.022Z,26.58
2023-04-18T05:33:32.173Z,30.88
2023-04-18T05:35:59.884Z,28.70
2023-04-18T05:38:29.700Z,31.33
2023-04-18T05:40:57.581Z,31.83
2023-04-18T05:43:25.893Z,28.17
2023-04-18T05:45:53.320Z,29.27
2023-04-18T05:48:23.755Z,29.70
2023-04-18T05:50:58.499Z,29.88
2023-04-18T05:53:25.800Z,29.02
2023-04-18T05:55:58.619Z,29.33
2023-04-18T05:58:25.900Z,28.00
2023-04-18T06:00:53.679Z,28.30
2023-04-18T06:03:22.022Z,28.60
2023-04-18T06:05:50.301Z,27.85
2023-04-18T06:08:18.515Z,29.05
2023-04-18T06:10:47.306Z,26.92
2023-04-18T06:13:16.161Z,27.70
2023-04-18T06:15:43.604Z,26.13
2023-04-18T06:18:10.320Z,28.58
2023-04-18T06:20:40.526Z,29.08
2023-04-18T06:23:08.853Z,24.63
2023-04-18T06:25:42.730Z,27.95
2023-04-18T06:28:09.658Z,27.60
2023-04-18T06:30:36.861Z,25.02
2023-04-18T06:33:03.773Z,25.60
2023-04-18T06:35:32.305Z,25.30
2023-04-18T06:38:00.260Z,28.23
2023-04-18T06:40:27.009Z,26.20
2023-04-18T06:42:53.897Z,25.08
2023-04-18T06:45:33.905Z,24.90
2023-04-18T06:48:11.019Z,26.50
2023-04-18T06:50:52.521Z,24.27
2023-04-18T06:53:20.998Z,25.20
2023-04-18T06:55:48.069Z,23.45
2023-04-18T06:58:20.469Z,22.02
2023-04-18T07:00:52.443Z,26.52
2023-04-18T07:03:22.006Z,24.20
2023-04-18T07:05:50.781Z,22.13
2023-04-18T07:08:18.901Z,26.02
2023-04-18T07:10:45.977Z,22.48
2023-04-18T07:13:15.423Z,22.50
2023-04-18T07:15:46.281Z,22.02
2023-04-18T07:18:18.150Z,22.15
2023-04-18T07:20:51.890Z,21.70
2023-04-18T07:23:19.898Z,21.85
2023-04-18T07:25:46.625Z,22.30
2023-04-18T07:28:13.758Z,21.05
2023-04-18T07:30:40.556Z,20.38
2023-04-18T07:33:07.747Z,21.02
2023-04-18T07:35:36.181Z,18.27
2023-04-18T07:38:03.092Z,19.70
2023-04-18T07:40:31.498Z,19.92
2023-04-18T07:43:00.179Z,20.33
2023-04-18T07:45:27.065Z,17.70
2023-04-18T07:47:55.343Z,17.98
2023-04-18T07:50:22.548Z,17.08
2023-04-18T07:52:49.669Z,15.98
2023-04-18T07:55:18.876Z,15.60
2023-04-18T07:57:50.424Z,15.50
2023-04-18T08:00:19.104Z,14.80
2023-04-18T08:02:46.808Z,13.93
2023-04-18T08:05:14.124Z,12.18
2023-04-18T08:07:42.160Z,13.68
2023-04-18T08:10:09.248Z,13.73
2023-04-18T08:12:36.852Z,13.18
2023-04-18T08:15:04.791Z,13.75
2023-04-18T08:17:31.562Z,12.18
2023-04-18T08:20:05.901Z,12.32
2023-04-18T08:22:33.520Z,13.38
2023-04-18T08:25:05.002Z,12.73
2023-04-18T08:27:37.115Z,11.55
2023-04-18T08:30:05.533Z,12.73
2023-04-18T08:32:34.046Z,14.07
2023-04-18T08:35:01.475Z,12.18
2023-04-18T08:37:29.153Z,12.20
2023-04-18T08:39:57.050Z,11.45
2023-04-18T08:42:24.266Z,12.27
2023-04-18T08:44:54.414Z,12.07
2023-04-18T08:47:23.043Z,11.50
2023-04-18T08:49:49.776Z,11.68
2023-04-18T08:52:18.029Z,13.18
2023-04-18T08:54:47.280Z,12.15
2023-04-18T08:57:24.007Z,13.15
2023-04-18T08:59:53.478Z,13.70
2023-04-18T09:02:26.812Z,14.13
2023-04-18T09:04:54.318Z,12.95
2023-04-18T09:07:28.510Z,15.32
2023-04-18T09:09:59.890Z,16.13
2023-04-18T09:12:28.206Z,15.18
2023-04-18T09:15:10.941Z,13.60
2023-04-18T09:17:43.958Z,15.15
2023-04-18T09:20:15.497Z,14.77
2023-04-18T09:22:51.942Z,17.15
2023-04-18T09:25:42.015Z,16.70
2023-04-18T09:28:31.059Z,15.90
2023-04-18T09:31:10.247Z,15.43
2023-04-18T09:33:37.750Z,13.80
2023-04-18T09:36:24.048Z,13.55
2023-04-18T09:38:55.292Z,14.80
2023-04-18T09:41:23.361Z,14.65
2023-04-18T09:43:52.505Z,14.30
2023-04-18T09:46:22.057Z,17.08
2023-04-18T09:48:48.795Z,14.32
2023-04-18T09:51:17.698Z,16.08
2023-04-18T09:53:48.044Z,16.38
2023-04-18T09:56:26.136Z,15.90
2023-04-18T09:59:00.536Z,13.93
2023-04-18T10:01:30.918Z,15.85
2023-04-18T10:04:07.110Z,16.23
2023-04-18T10:06:35.208Z,14.55
2023-04-18T10:09:09.403Z,15.45
2023-04-18T10:11:37.434Z,15.27
2023-04-18T10:14:20.434Z,14.70
2023-04-18T10:16:49.251Z,14.32
2023-04-18T10:19:47.474Z,15.93
2023-04-18T10:22:14.201Z,14.77
2023-04-18T10:24:56.442Z,16.27
2023-04-18T10:27:56.066Z,15.23
2023-04-18T10:30:46.019Z,15.80
2023-04-18T10:33:32.126Z,14.73
2023-04-18T10:36:15.654Z,15.82
2023-04-18T10:38:53.410Z,16.02
2023-04-18T10:41:22.108Z,16.70
2023-04-18T10:44:08.407Z,18.13
2023-04-18T10:46:38.477Z,16.33
2023-04-18T10:49:16.349Z,16.83
2023-04-18T10:51:45.658Z,15.35
2023-04-18T10:54:19.918Z,16.02
2023-04-18T10:56:57.041Z,16.02
2023-04-18T10:59:25.655Z,13.07
2023-04-18T11:01:59.485Z,14.57
2023-04-18T11:04:26.781Z,14.10
2023-04-18T11:06:58.475Z,15.32
2023-04-18T11:09:28.326Z,16.25
2023-04-18T11:12:09.137Z,15.63
2023-04-18T11:14:42.384Z,17.63
2023-04-18T11:17:22.056Z,16.88
2023-04-18T11:19:49.386Z,14.13
2023-04-18T11:22:17.295Z,14.20
2023-04-18T11:24:45.710Z,15.40
2023-04-18T11:27:13.258Z,17.40
2023-04-18T11:29:40.385Z,14.73
2023-04-18T11:32:08.321Z,15.75
2023-04-18T11:34:35.995Z,15.15
2023-04-18T11:37:07.497Z,17.08
2023-04-18T11:39:36.356Z,15.98
2023-04-18T11:42:03.182Z,16.85
2023-04-18T11:44:30.391Z,16.20
2023-04-18T11:46:57.808Z,17.75
2023-04-18T11:49:33.654Z,15.45
2023-04-18T11:52:01.396Z,18.65
2023-04-18T11:54:45.613Z,17.58
2023-04-18T11:57:28.549Z,19.20
2023-04-18T12:00:01.115Z,19.73
2023-04-18T12:02:43.975Z,17.30
2023-04-18T12:05:12.554Z,14.75
2023-04-18T12:07:44.810Z,18.10
2023-04-18T12:10:21.312Z,17.20
2023-04-18T12:12:49.496Z,16.15
2023-04-18T12:15:17.974Z,16.48
2023-04-18T12:17:57.080Z,17.15
2023-04-18T12:20:26.509Z,16.65
2023-04-18T12:22:55.361Z,16.73
2023-04-18T12:25:27.912Z,14.70
2023-04-18T12:27:56.705Z,15.90
2023-04-18T12:30:29.641Z,16.98
2023-04-18T12:33:04.194Z,17.85
2023-04-18T12:35:33.025Z,19.15
2023-04-18T12:38:02.889Z,17.42
2023-04-18T12:40:31.268Z,18.60
2023-04-18T12:42:58.544Z,17.27
2023-04-18T12:45:25.968Z,17.20
2023-04-18T12:47:54.609Z,16.15
2023-04-18T12:50:26.442Z,16.80
2023-04-18T12:52:55.206Z,16.70
2023-04-18T12:55:26.069Z,16.13
2023-04-18T12:57:54.837Z,17.17
2023-04-18T13:00:24.008Z,16.67
2023-04-18T13:02:52.775Z,16.37
2023-04-18T13:05:24.895Z,18.40
2023-04-18T13:07:58.603Z,16.20
2023-04-18T13:10:29.168Z,19.43
2023-04-18T13:12:55.889Z,18.40
2023-04-18T13:15:24.534Z,19.30
2023-04-18T13:17:51.373Z,17.33
2023-04-18T13:20:18.854Z,20.27
2023-04-18T13:22:47.184Z,19.70
2023-04-18T13:25:16.614Z,21.47
2023-04-18T13:27:46.616Z,21.13
2023-04-18T13:30:13.509Z,20.07
2023-04-18T13:32:41.475Z,19.80
2023-04-18T13:35:11.039Z,23.10
2023-04-18T13:37:38.351Z,19.80
2023-04-18T13:40:07.161Z,20.63
2023-04-18T13:42:37.199Z,19.98
2023-04-18T13:45:06.317Z,21.50
2023-04-18T13:47:35.571Z,20.20
2023-04-18T13:50:02.531Z,21.70
2023-04-18T13:52:29.806Z,20.73
2023-04-18T13:54:56.817Z,20.90
2023-04-18T13:57:24.631Z,21.80
2023-04-18T13:59:51.516Z,22.88
2023-04-18T14:02:18.556Z,23.40
2023-04-18T14:04:45.576Z,23.48
2023-04-18T14:07:12.347Z,21.60
2023-04-18T14:09:39.970Z,22.67
2023-04-18T14:12:07.424Z,21.00
2023-04-18T14:14:34.168Z,20.77
2023-04-18T14:17:00.878Z,18.33
2023-04-18T14:19:30.426Z,20.63
2023-04-18T14:21:57.151Z,19.97
2023-04-18T14:24:24.188Z,17.47
2023-04-18T14:26:51.252Z,20.50
2023-04-18T14:29:17.996Z,19.10
2023-04-18T14:31:44.952Z,16.90
2023-04-18T14:34:11.893Z,16.25
2023-04-18T14:36:38.999Z,15.38
2023-04-18T14:39:05.801Z,14.45
2023-04-18T14:41:36.822Z,14.75
2023-04-18T14:44:04.399Z,15.40
2023-04-18T14:46:31.781Z,14.75
2023-04-18T14:48:58.972Z,17.60
2023-04-18T14:51:26.824Z,15.52
2023-04-18T14:53:55.580Z,16.43
2023-04-18T14:56:24.247Z,15.35
2023-04-18T14:58:51.522Z,16.33
2023-04-18T15:01:18.591Z,15.50
2023-04-18T15:03:52.286Z,13.87
2023-04-18T15:06:19.090Z,16.20
2023-04-18T15:08:46.973Z,15.87
2023-04-18T15:11:13.880Z,17.13
2023-04-18T15:13:40.993Z,18.67
2023-04-18T15:16:08.449Z,16.70
2023-04-18T15:18:36.937Z,15.97
2023-04-18T15:21:04.110Z,17.30
2023-04-18T15:23:30.809Z,16.90
2023-04-18T15:25:57.618Z,16.02
2023-04-18T15:28:25.736Z,16.13
2023-04-18T15:30:52.436Z,16.70
2023-04-18T15:33:21.224Z,16.15
2023-04-18T15:35:48.003Z,16.80
2023-04-18T15:38:15.058Z,18.23
2023-04-18T15:40:43.800Z,17.30
2023-04-18T15:43:10.554Z,19.30
2023-04-18T15:45:40.020Z,16.30
2023-04-18T15:48:07.240Z,18.05
2023-04-18T15:50:35.821Z,14.20
2023-04-18T15:53:02.625Z,17.90
2023-04-18T15:55:30.090Z,16.45
2023-04-18T15:57:58.958Z,18.25
2023-04-18T16:00:26.724Z,19.63
2023-04-18T16:02:54.006Z,18.23
2023-04-18T16:05:21.265Z,15.30
2023-04-18T16:07:50.335Z,18.13
2023-04-18T16:10:17.474Z,17.70
2023-04-18T16:12:45.840Z,17.30
2023-04-18T16:15:13.469Z,18.02
2023-04-18T16:17:40.309Z,15.35
2023-04-18T16:20:09.510Z,16.25
2023-04-18T16:22:37.252Z,18.20
2023-04-18T16:25:05.296Z,16.13
2023-04-18T16:27:33.076Z,18.80
2023-04-18T16:29:59.890Z,17.60
2023-04-18T16:32:26.681Z,17.70
2023-04-18T16:34:56.631Z,17.40
2023-04-18T16:37:23.581Z,20.30
2023-04-18T16:39:50.733Z,16.42
2023-04-18T16:42:17.411Z,19.00
2023-04-18T16:44:47.360Z,18.58
2023-04-18T16:47:14.324Z,18.45
2023-04-18T16:49:43.549Z,18.30
2023-04-18T16:52:10.473Z,17.35
2023-04-18T16:54:37.392Z,19.75
2023-04-18T16:57:04.972Z,18.50
2023-04-18T16:59:31.672Z,15.85
2023-04-18T17:01:59.560Z,18.80
2023-04-18T17:04:28.791Z,18.58
2023-04-18T17:06:56.599Z,18.35
2023-04-18T17:09:25.642Z,19.20
2023-04-18T17:11:52.781Z,16.60
2023-04-18T17:14:19.456Z,18.45
2023-04-18T17:16:46.425Z,17.67
2023-04-18T17:19:13.324Z,17.33
2023-04-18T17:21:41.106Z,17.85
2023-04-18T17:24:08.106Z,17.15
2023-04-18T17:26:38.753Z,17.40
2023-04-18T17:29:05.916Z,18.42
2023-04-18T17:31:33.415Z,18.20
2023-04-18T17:34:01.507Z,19.02
2023-04-18T17:36:28.284Z,18.60
2023-04-18T17:38:55.828Z,18.58
2023-04-18T17:41:24.071Z,20.02
2023-04-18T17:43:51.468Z,19.17
2023-04-18T17:46:18.687Z,19.67
2023-04-18T17:48:47.098Z,17.33
2023-04-18T17:51:16.614Z,20.60
2023-04-18T17:53:43.692Z,19.92
2023-04-18T17:56:14.170Z,18.30
2023-04-18T17:58:41.245Z,17.33
2023-04-18T18:01:19.125Z,19.10
2023-04-18T18:03:47.461Z,17.25
2023-04-18T18:06:15.424Z,19.02
2023-04-18T18:08:43.192Z,20.17
2023-04-18T18:11:10.803Z,20.13
2023-04-18T18:13:39.357Z,17.85
2023-04-18T18:16:07.208Z,18.15
2023-04-18T18:18:34.438Z,20.00
2023-04-18T18:21:01.213Z,18.67
2023-04-18T18:23:30.602Z,18.65
2023-04-18T18:25:59.181Z,19.80
2023-04-18T18:28:26.051Z,17.58
2023-04-18T18:30:54.089Z,18.83
2023-04-18T18:33:21.013Z,17.35
2023-04-18T18:35:48.132Z,17.95
2023-04-18T18:38:14.849Z,19.35
2023-04-18T18:40:42.239Z,17.92
2023-04-18T18:43:09.238Z,18.67
2023-04-18T18:45:39.889Z,16.75
2023-04-18T18:48:10.413Z,18.92
2023-04-18T18:50:37.667Z,19.83
2023-04-18T18:53:07.210Z,17.70
2023-04-18T18:55:34.319Z,19.70
2023-04-18T18:58:02.149Z,18.67
2023-04-18T19:00:29.012Z,20.23
2023-04-18T19:02:55.847Z,18.33
2023-04-18T19:05:22.749Z,17.80
2023-04-18T19:07:51.438Z,17.15
2023-04-18T19:10:18.299Z,19.25
2023-04-18T19:12:45.648Z,19.17
2023-04-18T19:15:13.597Z,18.20
2023-04-18T19:17:40.426Z,18.30
2023-04-18T19:20:08.189Z,18.70
2023-04-18T19:22:37.577Z,15.75
2023-04-18T19:25:05.121Z,17.55
2023-04-18T19:27:32.248Z,17.23
2023-04-18T19:29:59.007Z,17.30
2023-04-18T19:32:31.966Z,19.15
2023-04-18T19:35:00.041Z,17.83
2023-04-18T19:37:26.887Z,16.95
2023-04-18T19:39:57.239Z,19.40
2023-04-18T19:42:24.352Z,17.10
2023-04-18T19:44:51.057Z,16.90
2023-04-18T19:47:17.849Z,15.40
2023-04-18T19:49:44.513Z,18.02
2023-04-18T19:52:11.440Z,16.52
2023-04-18T19:54:39.106Z,17.73
2023-04-18T19:57:07.098Z,19.55
2023-04-18T19:59:33.797Z,16.55
2023-04-18T20:02:03.445Z,17.20
2023-04-18T20:04:34.560Z,17.73
2023-04-18T20:07:01.502Z,17.23
2023-04-18T20:09:28.752Z,15.88
2023-04-18T20:11:57.817Z,15.55
2023-04-18T20:14:25.063Z,16.48
2023-04-18T20:16:52.291Z,16.02
2023-04-18T20:19:19.972Z,17.90
2023-04-18T20:21:47.849Z,15.30
2023-04-18T20:24:15.640Z,17.38
2023-04-18T20:26:42.892Z,16.02
2023-04-18T20:29:09.626Z,15.77
2023-04-18T20:31:38.162Z,16.30
2023-04-18T20:34:06.664Z,17.15
2023-04-18T20:36:34.801Z,17.73
2023-04-18T20:39:05.852Z,17.50
2023-04-18T20:41:34.884Z,17.65
2023-04-18T20:44:06.890Z,18.05
2023-04-18T20:46:34.054Z,16.70
2023-04-18T20:49:02.481Z,18.40
2023-04-18T20:51:30.365Z,16.38
2023-04-18T20:53:57.117Z,16.55
2023-04-18T20:56:24.196Z,16.92
2023-04-18T20:58:51.594Z,15.05
2023-04-18T21:01:24.685Z,15.80
2023-04-18T21:03:51.791Z,17.00
2023-04-18T21:06:23.599Z,16.20
2023-04-18T21:08:50.745Z,16.95
2023-04-18T21:11:17.629Z,18.48
2023-04-18T21:13:45.055Z,17.73
2023-04-18T21:16:12.488Z,17.35
2023-04-18T21:18:43.821Z,18.08
2023-04-18T21:21:11.030Z,18.05
2023-04-18T21:23:45.004Z,15.63
2023-04-18T21:26:14.244Z,16.40
2023-04-18T21:29:01.614Z,18.73
2023-04-18T21:31:34.570Z,15.80
2023-04-18T21:34:04.666Z,15.13
2023-04-18T21:36:32.034Z,17.00
2023-04-18T21:39:01.526Z,17.85
2023-04-18T21:41:31.248Z,18.73
2023-04-18T21:43:59.841Z,16.30
2023-04-18T21:46:26.988Z,16.83
2023-04-18T21:48:55.699Z,15.88
2023-04-18T21:51:22.989Z,16.65
2023-04-18T21:53:51.918Z,17.25
2023-04-18T21:56:18.646Z,17.65
2023-04-18T21:58:46.672Z,17.00
2023-04-18T22:01:13.988Z,16.50
2023-04-18T22:03:42.517Z,18.00
2023-04-18T22:06:10.098Z,17.88
2023-04-18T22:08:36.821Z,16.02
2023-04-18T22:11:05.170Z,15.50
2023-04-18T22:13:34.636Z,16.48
2023-04-18T22:16:03.155Z,15.73
2023-04-18T22:18:34.382Z,17.73
2023-04-18T22:21:03.259Z,15.43
2023-04-18T22:23:31.341Z,17.10
2023-04-18T22:25:58.566Z,14.02
2023-04-18T22:28:28.028Z,15.07
2023-04-18T22:30:55.239Z,14.55
2023-04-18T22:33:22.586Z,15.80
2023-04-18T22:35:49.539Z,14.55
2023-04-18T22:38:16.756Z,16.15
2023-04-18T22:40:43.873Z,15.13
2023-04-18T22:43:10.706Z,15.25
2023-04-18T22:45:37.912Z,15.55
2023-04-18T22:48:11.466Z,15.80
2023-04-18T22:50:43.013Z,15.65
2023-04-18T22:53:14.116Z,13.32
2023-04-18T22:55:42.747Z,15.13
2023-04-18T22:58:11.086Z,13.20
2023-04-18T23:00:37.830Z,14.77
2023-04-18T23:03:06.609Z,15.15
2023-04-18T23:05:35.429Z,15.15
2023-04-18T23:08:02.565Z,14.98
2023-04-18T23:10:29.786Z,14.20
2023-04-18T23:12:56.574Z,15.43
2023-04-18T23:15:23.801Z,15.57
2023-04-18T23:17:54.087Z,14.75
2023-04-18T23:20:22.374Z,14.25
2023-04-18T23:22:51.587Z,15.32
2023-04-18T23:25:19.513Z,13.70
2023-04-18T23:27:47.257Z,13.13
2023-04-18T23:30:14.246Z,14.38
2023-04-18T23:32:42.481Z,13.00
2023-04-18T23:35:11.186Z,14.98
2023-04-18T23:37:38.321Z,14.73
2023-04-18T23:40:12.773Z,13.90
2023-04-18T23:42:40.864Z,15.82
2023-04-18T23:45:08.338Z,14.63
2023-04-18T23:47:35.301Z,13.35
2023-04-18T23:50:02.453Z,14.27
2023-04-18T23:52:29.645Z,16.63
2023-04-18T23:55:06.238Z,14.40
2023-04-18T23:57:33.338Z,13.27
